sensor_id;sensor_type;location;lat;lon;timestamp;pressure;altitude;pressure_sealevel;temperature;humidity
39699;BME280;25372;50.582;12.250;2023-08-24T00:06:49;100144.41;;;16.32;81.39
39699;BME280;25372;50.582;12.250;2023-08-24T00:17:12;100137.44;;;15.75;83.86
39699;BME280;25372;50.582;12.250;2023-08-24T00:27:34;100138.59;;;16.05;82.21
39699;BME280;25372;50.582;12.250;2023-08-24T00:37:56;100135.63;;;15.99;80.98
39699;BME280;25372;50.582;12.250;2023-08-24T00:48:18;100141.03;;;15.86;84.87
39699;BME280;25372;50.582;12.250;2023-08-24T00:58:40;100141.22;;;15.50;87.04
39699;BME280;25372;50.582;12.250;2023-08-24T01:09:01;100137.16;;;15.34;88.24
39699;BME280;25372;50.582;12.250;2023-08-24T01:19:34;100118.16;;;15.29;88.78
39699;BME280;25372;50.582;12.250;2023-08-24T01:29:58;100119.38;;;15.14;89.07
39699;BME280;25372;50.582;12.250;2023-08-24T01:40:25;100121.31;;;15.12;90.13
39699;BME280;25372;50.582;12.250;2023-08-24T01:50:49;100110.94;;;15.20;88.66
39699;BME280;25372;50.582;12.250;2023-08-24T02:01:11;100122.97;;;15.24;88.73
39699;BME280;25372;50.582;12.250;2023-08-24T02:11:34;100108.44;;;15.07;86.40
39699;BME280;25372;50.582;12.250;2023-08-24T02:21:55;100110.13;;;14.96;90.28
39699;BME280;25372;50.582;12.250;2023-08-24T02:32:17;100098.81;;;14.94;90.41
39699;BME280;25372;50.582;12.250;2023-08-24T02:42:39;100095.06;;;14.74;88.59
39699;BME280;25372;50.582;12.250;2023-08-24T02:53:01;100102.19;;;14.85;90.34
39699;BME280;25372;50.582;12.250;2023-08-24T03:03:23;100095.19;;;14.73;86.75
39699;BME280;25372;50.582;12.250;2023-08-24T03:13:45;100105.78;;;14.73;90.85
39699;BME280;25372;50.582;12.250;2023-08-24T03:24:06;100093.63;;;14.81;86.61
39699;BME280;25372;50.582;12.250;2023-08-24T03:34:28;100095.22;;;14.84;85.60
39699;BME280;25372;50.582;12.250;2023-08-24T03:44:51;100089.06;;;14.72;89.17
39699;BME280;25372;50.582;12.250;2023-08-24T03:55:13;100092.59;;;14.48;88.53
39699;BME280;25372;50.582;12.250;2023-08-24T04:05:34;100093.28;;;14.39;91.98
39699;BME280;25372;50.582;12.250;2023-08-24T04:15:56;100078.66;;;14.35;90.77
39699;BME280;25372;50.582;12.250;2023-08-24T04:26:18;100086.00;;;14.54;87.95
39699;BME280;25372;50.582;12.250;2023-08-24T04:36:40;100093.69;;;14.68;89.51
39699;BME280;25372;50.582;12.250;2023-08-24T04:47:01;100094.34;;;14.72;90.51
39699;BME280;25372;50.582;12.250;2023-08-24T04:57:23;100090.63;;;14.86;88.60
39699;BME280;25372;50.582;12.250;2023-08-24T05:07:44;100090.38;;;15.12;86.35
39699;BME280;25372;50.582;12.250;2023-08-24T05:18:06;100093.25;;;15.43;88.52
39699;BME280;25372;50.582;12.250;2023-08-24T05:28:28;100091.69;;;15.96;83.73
39699;BME280;25372;50.582;12.250;2023-08-24T05:38:50;100093.97;;;16.64;79.97
39699;BME280;25372;50.582;12.250;2023-08-24T05:49:15;100090.56;;;16.84;77.94
39699;BME280;25372;50.582;12.250;2023-08-24T05:59:37;100082.91;;;17.12;77.27
39699;BME280;25372;50.582;12.250;2023-08-24T06:09:58;100083.69;;;17.43;77.15
39699;BME280;25372;50.582;12.250;2023-08-24T06:20:21;100073.09;;;17.73;73.85
39699;BME280;25372;50.582;12.250;2023-08-24T06:30:42;100066.97;;;18.12;72.97
39699;BME280;25372;50.582;12.250;2023-08-24T06:41:05;100074.22;;;18.39;73.88
39699;BME280;25372;50.582;12.250;2023-08-24T06:51:28;100070.16;;;18.83;71.83
39699;BME280;25372;50.582;12.250;2023-08-24T07:01:50;100065.28;;;19.16;70.41
39699;BME280;25372;50.582;12.250;2023-08-24T07:12:11;100073.94;;;19.46;68.90
39699;BME280;25372;50.582;12.250;2023-08-24T07:22:33;100051.16;;;19.98;66.19
39699;BME280;25372;50.582;12.250;2023-08-24T07:32:54;100056.03;;;20.03;67.36
39699;BME280;25372;50.582;12.250;2023-08-24T07:43:17;100058.44;;;20.40;64.85
39699;BME280;25372;50.582;12.250;2023-08-24T07:53:38;100066.00;;;20.80;63.86
39699;BME280;25372;50.582;12.250;2023-08-24T08:04:00;100043.09;;;20.95;64.38
39699;BME280;25372;50.582;12.250;2023-08-24T08:14:20;100050.28;;;21.55;61.68
39699;BME280;25372;50.582;12.250;2023-08-24T08:24:44;100048.81;;;21.77;60.10
39699;BME280;25372;50.582;12.250;2023-08-24T08:35:05;100041.69;;;22.75;57.71
39699;BME280;25372;50.582;12.250;2023-08-24T08:45:28;100036.78;;;25.69;48.87
39699;BME280;25372;50.582;12.250;2023-08-24T08:55:51;100028.97;;;27.58;43.53
39699;BME280;25372;50.582;12.250;2023-08-24T09:06:13;100005.56;;;28.85;40.18
39699;BME280;25372;50.582;12.250;2023-08-24T09:16:34;99993.50;;;28.81;39.47
39699;BME280;25372;50.582;12.250;2023-08-24T09:26:58;99967.78;;;27.58;43.08
39699;BME280;25372;50.582;12.250;2023-08-24T09:37:19;99962.00;;;26.37;44.15
39699;BME280;25372;50.582;12.250;2023-08-24T09:47:46;99959.88;;;26.25;43.55
39699;BME280;25372;50.582;12.250;2023-08-24T09:58:10;99912.56;;;27.14;42.95
39699;BME280;25372;50.582;12.250;2023-08-24T10:08:35;99926.66;;;27.09;43.13
39699;BME280;25372;50.582;12.250;2023-08-24T10:18:57;99921.94;;;27.52;46.89
39699;BME280;25372;50.582;12.250;2023-08-24T10:29:20;99931.63;;;28.20;44.16
39699;BME280;25372;50.582;12.250;2023-08-24T10:39:46;99917.78;;;27.76;40.34
39699;BME280;25372;50.582;12.250;2023-08-24T10:50:09;99904.91;;;27.91;42.58
39699;BME280;25372;50.582;12.250;2023-08-24T11:00:31;99892.69;;;27.48;41.72
39699;BME280;25372;50.582;12.250;2023-08-24T11:10:54;99878.19;;;27.83;44.93
39699;BME280;25372;50.582;12.250;2023-08-24T11:21:20;99873.41;;;27.52;41.52
39699;BME280;25372;50.582;12.250;2023-08-24T11:31:44;99856.38;;;27.78;40.76
39699;BME280;25372;50.582;12.250;2023-08-24T11:42:05;99833.34;;;27.89;45.16
39699;BME280;25372;50.582;12.250;2023-08-24T11:52:30;99765.63;;;28.04;40.74
39699;BME280;25372;50.582;12.250;2023-08-24T12:02:55;99751.53;;;27.16;42.91
39699;BME280;25372;50.582;12.250;2023-08-24T12:13:17;99745.91;;;27.38;44.55
39699;BME280;25372;50.582;12.250;2023-08-24T12:23:38;99756.06;;;27.42;40.47
39699;BME280;25372;50.582;12.250;2023-08-24T12:34:01;99773.34;;;28.00;43.43
39699;BME280;25372;50.582;12.250;2023-08-24T12:44:22;99768.50;;;27.36;45.10
39699;BME280;25372;50.582;12.250;2023-08-24T12:54:45;99759.38;;;28.10;40.92
39699;BME280;25372;50.582;12.250;2023-08-24T13:05:06;99744.13;;;29.56;38.16
39699;BME280;25372;50.582;12.250;2023-08-24T13:15:29;99725.69;;;28.58;39.06
39699;BME280;25372;50.582;12.250;2023-08-24T13:25:49;99696.53;;;28.03;41.74
39699;BME280;25372;50.582;12.250;2023-08-24T13:36:12;99665.69;;;27.92;44.29
39699;BME280;25372;50.582;12.250;2023-08-24T13:46:33;99660.94;;;28.77;42.80
39699;BME280;25372;50.582;12.250;2023-08-24T13:56:55;99661.19;;;29.13;41.55
39699;BME280;25372;50.582;12.250;2023-08-24T14:07:16;99648.31;;;28.96;41.34
39699;BME280;25372;50.582;12.250;2023-08-24T14:17:38;99640.34;;;28.83;40.70
39699;BME280;25372;50.582;12.250;2023-08-24T14:27:59;99627.88;;;29.38;41.28
39699;BME280;25372;50.582;12.250;2023-08-24T14:38:22;99624.59;;;29.97;43.04
39699;BME280;25372;50.582;12.250;2023-08-24T14:48:42;99599.84;;;30.60;39.83
39699;BME280;25372;50.582;12.250;2023-08-24T14:59:04;99594.59;;;31.59;38.69
39699;BME280;25372;50.582;12.250;2023-08-24T15:09:25;99590.38;;;31.80;39.33
39699;BME280;25372;50.582;12.250;2023-08-24T15:19:48;99602.34;;;30.61;38.53
39699;BME280;25372;50.582;12.250;2023-08-24T15:30:09;99601.63;;;29.88;40.44
39699;BME280;25372;50.582;12.250;2023-08-24T15:40:31;99595.66;;;29.55;40.78
39699;BME280;25372;50.582;12.250;2023-08-24T15:50:52;99564.84;;;29.56;42.39
39699;BME280;25372;50.582;12.250;2023-08-24T16:01:14;99559.38;;;28.95;42.83
39699;BME280;25372;50.582;12.250;2023-08-24T16:11:35;99533.41;;;29.97;41.34
39699;BME280;25372;50.582;12.250;2023-08-24T16:21:57;99531.00;;;28.85;45.69
39699;BME280;25372;50.582;12.250;2023-08-24T16:32:20;99544.09;;;27.16;48.55
39699;BME280;25372;50.582;12.250;2023-08-24T16:42:42;99545.94;;;27.68;47.95
39699;BME280;25372;50.582;12.250;2023-08-24T16:53:03;99523.91;;;26.86;51.92
39699;BME280;25372;50.582;12.250;2023-08-24T17:03:25;99543.47;;;26.48;51.56
39699;BME280;25372;50.582;12.250;2023-08-24T17:13:46;99525.22;;;26.63;51.61
39699;BME280;25372;50.582;12.250;2023-08-24T17:24:08;99520.09;;;25.88;55.92
39699;BME280;25372;50.582;12.250;2023-08-24T17:34:29;99512.03;;;25.05;56.96
39699;BME280;25372;50.582;12.250;2023-08-24T17:44:51;99497.13;;;24.25;59.27
39699;BME280;25372;50.582;12.250;2023-08-24T17:55:12;99502.22;;;23.92;62.89
39699;BME280;25372;50.582;12.250;2023-08-24T18:05:34;99520.41;;;23.31;65.76
39699;BME280;25372;50.582;12.250;2023-08-24T18:15:55;99528.47;;;22.86;67.82
39699;BME280;25372;50.582;12.250;2023-08-24T18:26:17;99527.31;;;22.20;69.79
39699;BME280;25372;50.582;12.250;2023-08-24T18:36:38;99543.41;;;21.65;72.13
39699;BME280;25372;50.582;12.250;2023-08-24T18:47:04;99499.28;;;21.22;73.63
39699;BME280;25372;50.582;12.250;2023-08-24T18:57:25;99500.19;;;21.06;74.32
39699;BME280;25372;50.582;12.250;2023-08-24T19:07:47;99484.72;;;20.93;74.35
39699;BME280;25372;50.582;12.250;2023-08-24T19:18:09;99460.78;;;20.77;75.96
39699;BME280;25372;50.582;12.250;2023-08-24T19:28:32;99431.69;;;20.59;76.11
39699;BME280;25372;50.582;12.250;2023-08-24T19:38:53;99422.91;;;20.42;75.85
39699;BME280;25372;50.582;12.250;2023-08-24T19:49:15;99385.41;;;20.43;76.49
39699;BME280;25372;50.582;12.250;2023-08-24T19:59:36;99388.06;;;20.43;76.10
39699;BME280;25372;50.582;12.250;2023-08-24T20:09:58;99365.72;;;20.44;76.53
39699;BME280;25372;50.582;12.250;2023-08-24T20:20:19;99350.63;;;20.28;76.06
39699;BME280;25372;50.582;12.250;2023-08-24T20:30:42;99349.84;;;20.19;78.34
39699;BME280;25372;50.582;12.250;2023-08-24T20:41:03;99339.09;;;19.96;77.89
39699;BME280;25372;50.582;12.250;2023-08-24T20:51:25;99335.66;;;19.54;79.30
39699;BME280;25372;50.582;12.250;2023-08-24T21:01:46;99344.66;;;19.36;80.62
39699;BME280;25372;50.582;12.250;2023-08-24T21:12:08;99350.81;;;19.45;78.90
39699;BME280;25372;50.582;12.250;2023-08-24T21:22:29;99345.66;;;19.52;79.81
39699;BME280;25372;50.582;12.250;2023-08-24T21:32:51;99354.59;;;19.67;79.10
39699;BME280;25372;50.582;12.250;2023-08-24T21:43:12;99340.41;;;19.92;80.07
39699;BME280;25372;50.582;12.250;2023-08-24T21:53:34;99330.13;;;19.80;80.38
39699;BME280;25372;50.582;12.250;2023-08-24T22:03:57;99328.31;;;19.81;80.67
39699;BME280;25372;50.582;12.250;2023-08-24T22:14:22;99318.00;;;19.69;80.76
39699;BME280;25372;50.582;12.250;2023-08-24T22:24:43;99308.78;;;19.89;78.76
39699;BME280;25372;50.582;12.250;2023-08-24T22:35:06;99311.63;;;19.95;79.70
39699;BME280;25372;50.582;12.250;2023-08-24T22:45:36;99326.97;;;19.93;79.47
39699;BME280;25372;50.582;12.250;2023-08-24T22:55:58;99346.19;;;20.12;78.60
39699;BME280;25372;50.582;12.250;2023-08-24T23:06:20;99344.25;;;20.06;79.70
39699;BME280;25372;50.582;12.250;2023-08-24T23:16:43;99262.81;;;20.03;77.04
39699;BME280;25372;50.582;12.250;2023-08-24T23:27:03;99277.66;;;19.97;75.48
39699;BME280;25372;50.582;12.250;2023-08-24T23:37:26;99285.66;;;19.97;77.16
39699;BME280;25372;50.582;12.250;2023-08-24T23:47:47;99262.41;;;20.15;74.30
39699;BME280;25372;50.582;12.250;2023-08-24T23:58:10;99241.47;;;20.11;76.33
